Time;durP1;ratioP1;P1;durP2;ratioP2;P2;SDS_P1;SDS_P2;PMS_P1;PMS_P2;Temp;Humidity;BMP_temperature;BMP_pressure;BME280_temperature;BME280_humidity;BME280_pressure;Samples;Min_cycle;Max_cycle;Signal;HPM_P1;HPM_P2
2021/07/30 00:00:06;;;;;;;21.10;7.00;;;;;;;22.41;84.18;99981.89;1718359;83;20974;-38
2021/07/30 00:02:33;;;;;;;30.50;6.80;;;;;;;22.38;84.23;99982.48;1721249;83;21674;-39
2021/07/30 00:04:59;;;;;;;21.75;6.85;;;;;;;22.35;84.25;99977.91;1703920;83;21091;-37
2021/07/30 00:07:26;;;;;;;24.63;6.60;;;;;;;22.32;84.42;99980.78;1706825;83;21007;-39
2021/07/30 00:09:54;;;;;;;23.65;6.83;;;;;;;22.27;84.77;99981.13;1704519;83;21014;-38
2021/07/30 00:12:21;;;;;;;40.45;7.03;;;;;;;22.23;85.22;99978.36;1695986;83;20993;-40
2021/07/30 00:14:48;;;;;;;38.10;7.12;;;;;;;22.19;85.67;99975.11;1703352;83;21171;-39
2021/07/30 00:17:14;;;;;;;31.52;7.35;;;;;;;22.18;85.90;99970.79;1700440;83;21019;-39
2021/07/30 00:19:40;;;;;;;25.15;7.05;;;;;;;22.17;85.95;99970.92;1701482;83;21564;-39
2021/07/30 00:22:07;;;;;;;34.73;6.78;;;;;;;22.15;86.26;99984.20;1707779;83;21122;-39
2021/07/30 00:24:34;;;;;;;21.02;5.83;;;;;;;22.14;87.39;99983.02;1713574;83;21197;-39
2021/07/30 00:27:01;;;;;;;35.13;7.03;;;;;;;22.11;88.17;99978.80;1675497;84;21839;-39
2021/07/30 00:29:27;;;;;;;29.12;5.65;;;;;;;22.07;88.12;99978.67;1709505;83;21560;-39
2021/07/30 00:31:54;;;;;;;14.73;6.20;;;;;;;22.04;88.08;99977.09;1707812;83;21018;-39
2021/07/30 00:34:21;;;;;;;16.07;6.25;;;;;;;22.01;87.29;99973.87;1713873;83;20936;-39
2021/07/30 00:36:47;;;;;;;17.60;6.70;;;;;;;22.03;86.93;99979.86;1762084;80;21010;-39
2021/07/30 00:39:14;;;;;;;21.05;6.05;;;;;;;22.01;86.76;99980.45;1771832;80;21639;-39
2021/07/30 00:41:41;;;;;;;21.55;5.75;;;;;;;22.00;87.16;99978.78;1770949;80;21013;-38
2021/07/30 00:44:07;;;;;;;20.27;6.60;;;;;;;21.98;87.11;99984.14;1726990;80;20979;-39
2021/07/30 00:46:35;;;;;;;12.60;4.83;;;;;;;21.96;86.19;99976.83;1753347;80;20975;-39
2021/07/30 00:49:03;;;;;;;10.85;5.53;;;;;;;21.98;85.62;99978.87;1727755;80;20994;-38
2021/07/30 00:51:34;;;;;;;19.73;5.62;;;;;;;21.99;85.27;99973.97;1769857;80;21554;-38
2021/07/30 00:54:02;;;;;;;21.27;5.72;;;;;;;21.96;84.88;99964.48;1759331;80;20983;-38
2021/07/30 00:56:30;;;;;;;11.83;5.40;;;;;;;21.94;84.59;99964.25;1757347;80;20975;-38
2021/07/30 00:59:00;;;;;;;16.52;5.15;;;;;;;21.92;84.39;99963.53;1752775;80;20916;-38
2021/07/30 01:01:30;;;;;;;16.52;5.55;;;;;;;21.89;84.36;99955.86;1724141;80;21551;-39
2021/07/30 01:04:02;;;;;;;11.22;5.37;;;;;;;21.87;84.15;99961.72;1773722;80;21167;-38
2021/07/30 01:06:32;;;;;;;14.23;5.83;;;;;;;21.82;83.93;99960.23;1754063;80;21031;-38
2021/07/30 01:09:01;;;;;;;14.05;4.80;;;;;;;21.77;83.89;99968.97;1752248;80;21016;-38
2021/07/30 01:11:29;;;;;;;16.40;5.75;;;;;;;21.72;84.13;99976.37;1751415;80;21612;-39
2021/07/30 01:14:03;;;;;;;25.70;6.30;;;;;;;21.68;84.49;99982.33;1751204;80;20975;-39
2021/07/30 01:16:31;;;;;;;17.92;5.67;;;;;;;21.65;84.09;99986.99;1757771;80;20979;-38
2021/07/30 01:19:02;;;;;;;9.98;5.15;;;;;;;21.66;83.51;99995.25;1762748;80;20995;-38
2021/07/30 01:21:35;;;;;;;11.90;5.10;;;;;;;21.65;83.18;99990.45;1732149;81;21015;-38
2021/07/30 01:24:04;;;;;;;8.13;5.65;;;;;;;21.66;83.19;99989.98;1755933;80;21018;-39
2021/07/30 01:26:32;;;;;;;11.20;5.35;;;;;;;21.61;83.00;99990.28;1721956;80;20971;-39
2021/07/30 01:29:02;;;;;;;11.88;5.60;;;;;;;21.57;83.00;99995.88;1748795;80;21203;-38
2021/07/30 01:31:33;;;;;;;14.85;4.70;;;;;;;21.52;83.18;99997.54;1769195;80;21492;-39
2021/07/30 01:34:00;;;;;;;9.90;4.95;;;;;;;21.49;83.24;99999.08;1750350;81;20948;-39
2021/07/30 01:36:27;;;;;;;11.03;5.12;;;;;;;21.47;83.26;100003.13;1757822;80;21639;-38
2021/07/30 01:38:53;;;;;;;11.50;5.53;;;;;;;21.45;83.67;99999.77;1750529;80;21551;-38
2021/07/30 01:41:19;;;;;;;20.17;4.97;;;;;;;21.40;84.13;99992.67;1773529;80;21804;-38
2021/07/30 01:43:46;;;;;;;12.05;4.35;;;;;;;21.36;84.30;100001.25;1783706;80;21615;-38
2021/07/30 01:46:13;;;;;;;9.18;4.47;;;;;;;21.34;84.50;100011.52;1778632;80;20947;-38
2021/07/30 01:48:39;;;;;;;10.63;4.33;;;;;;;21.32;84.75;100014.73;1771841;80;21026;-38
2021/07/30 01:51:06;;;;;;;13.68;4.35;;;;;;;21.27;84.58;100015.08;1749669;80;20991;-38
2021/07/30 01:53:33;;;;;;;10.38;4.40;;;;;;;21.25;84.71;100015.17;1770916;80;21876;-38
2021/07/30 01:56:09;;;;;;;10.25;4.35;;;;;;;21.24;84.53;100018.75;1774886;80;20887;-38
2021/07/30 01:58:28;;;;;;;21.50;4.53;;;;;;;21.23;84.19;100018.39;1767284;80;21101;-38
2021/07/30 02:00:55;;;;;;;14.78;4.22;;;;;;;21.24;83.87;100027.14;1781912;80;20978;-38
2021/07/30 02:03:21;;;;;;;11.63;4.55;;;;;;;21.24;83.94;100031.09;1767742;80;20951;-38
2021/07/30 02:05:47;;;;;;;8.65;4.00;;;;;;;21.23;83.88;100032.86;1764334;80;21078;-39
2021/07/30 02:08:14;;;;;;;13.40;4.35;;;;;;;21.23;83.85;100038.13;1756295;80;20990;-38
2021/07/30 02:10:41;;;;;;;12.40;5.20;;;;;;;21.25;83.98;100037.54;1767509;80;21535;-38
2021/07/30 02:15:53;;;;;;;14.15;4.30;;;;;;;21.25;84.32;100042.80;1764125;80;20989;-38
2021/07/30 02:18:20;;;;;;;11.08;4.70;;;;;;;21.24;84.06;100050.33;1769223;80;21122;-38
2021/07/30 02:20:46;;;;;;;12.75;4.37;;;;;;;21.24;83.85;100052.14;1760169;80;20982;-39
2021/07/30 02:23:12;;;;;;;7.33;3.92;;;;;;;21.22;83.78;100058.81;1753211;80;20935;-39
2021/07/30 02:25:39;;;;;;;14.83;4.45;;;;;;;21.22;83.92;100059.30;1761382;80;20974;-39
2021/07/30 02:28:05;;;;;;;12.23;4.45;;;;;;;21.23;84.19;100065.76;1776880;80;20978;-39
2021/07/30 02:30:32;;;;;;;11.68;4.25;;;;;;;21.22;84.73;100068.02;1765702;80;21143;-39
2021/07/30 02:32:58;;;;;;;11.43;4.40;;;;;;;21.20;85.17;100059.39;1779559;80;20947;-40
2021/07/30 02:35:24;;;;;;;15.25;4.67;;;;;;;21.19;85.19;100066.06;1765053;80;20990;-40
2021/07/30 02:37:51;;;;;;;14.85;4.22;;;;;;;21.19;85.41;100068.70;1729880;82;21030;-39
2021/07/30 02:40:17;;;;;;;9.15;4.50;;;;;;;21.17;85.35;100062.25;1777228;80;20970;-39
2021/07/30 02:42:44;;;;;;;13.43;4.50;;;;;;;21.18;84.95;100064.39;1746857;80;21163;-38
2021/07/30 02:45:11;;;;;;;5.37;3.98;;;;;;;21.16;85.26;100072.41;1744417;80;20967;-39
2021/07/30 02:47:38;;;;;;;16.42;4.37;;;;;;;21.15;85.40;100073.35;1730292;82;21049;-38
2021/07/30 02:50:07;;;;;;;11.18;4.30;;;;;;;21.15;85.55;100081.25;1749688;81;21022;-38
2021/07/30 02:52:34;;;;;;;9.10;4.25;;;;;;;21.13;85.81;100077.87;1743613;80;21299;-39
2021/07/30 02:55:00;;;;;;;13.70;4.40;;;;;;;21.14;86.03;100082.20;1772584;80;21056;-39
2021/07/30 02:57:27;;;;;;;10.80;3.85;;;;;;;21.13;86.19;100089.72;1714020;82;20986;-39
2021/07/30 02:59:53;;;;;;;9.55;4.28;;;;;;;21.12;86.47;100085.87;1709328;82;21322;-39
2021/07/30 03:02:20;;;;;;;14.70;4.85;;;;;;;21.12;86.68;100089.36;1755822;80;20982;-38
2021/07/30 03:04:46;;;;;;;16.62;4.55;;;;;;;21.11;86.92;100088.98;1741645;82;20984;-38
2021/07/30 03:07:13;;;;;;;17.20;4.67;;;;;;;21.10;86.99;100094.70;1717692;82;21103;-39
2021/07/30 03:09:39;;;;;;;15.13;4.03;;;;;;;21.13;87.03;100091.50;1717322;82;21007;-39
2021/07/30 03:12:07;;;;;;;13.50;4.03;;;;;;;21.15;86.92;100101.44;1736081;82;21079;-39
2021/07/30 03:14:33;;;;;;;14.18;5.00;;;;;;;21.17;86.94;100104.80;1706614;82;21534;-39
2021/07/30 03:17:02;;;;;;;9.05;4.28;;;;;;;21.19;87.11;100106.39;1731112;82;21015;-39
2021/07/30 03:19:28;;;;;;;7.92;5.03;;;;;;;21.21;87.27;100107.12;1721558;82;21776;-38
2021/07/30 03:21:56;;;;;;;10.08;4.05;;;;;;;21.23;87.50;100115.76;1720330;82;20906;-39
2021/07/30 03:24:22;;;;;;;6.62;4.67;;;;;;;21.26;87.57;100116.03;1728551;82;20953;-39
2021/07/30 03:26:48;;;;;;;9.20;5.10;;;;;;;21.30;87.89;100114.02;1726115;81;21458;-39
2021/07/30 03:29:15;;;;;;;16.05;5.08;;;;;;;21.32;87.90;100110.34;1722028;81;21622;-38
2021/07/30 03:31:47;;;;;;;15.83;5.42;;;;;;;21.37;87.92;100106.08;1712450;82;20956;-39
2021/07/30 03:34:11;;;;;;;11.60;4.80;;;;;;;21.40;87.83;100112.45;1715337;82;21023;-39
2021/07/30 03:36:37;;;;;;;9.05;5.25;;;;;;;21.44;88.00;100105.16;1727851;81;22275;-38
2021/07/30 03:39:04;;;;;;;11.45;5.75;;;;;;;21.50;88.14;100112.65;1768155;80;20978;-38
2021/07/30 03:41:31;;;;;;;10.72;5.25;;;;;;;21.56;88.33;100108.27;1688859;81;21032;-39
2021/07/30 03:43:59;;;;;;;15.32;5.70;;;;;;;21.64;87.83;100108.59;1725472;82;21686;-39
2021/07/30 03:46:25;;;;;;;11.40;4.95;;;;;;;21.73;87.45;100112.36;1720227;82;21498;-39
2021/07/30 03:48:52;;;;;;;11.33;5.53;;;;;;;21.82;87.42;100108.23;1733841;80;20963;-39
2021/07/30 03:51:19;;;;;;;13.85;5.40;;;;;;;21.92;86.89;100104.47;1721515;82;21007;-39
2021/07/30 03:53:45;;;;;;;14.20;5.50;;;;;;;22.01;86.57;100105.61;1775529;80;20966;-39
2021/07/30 03:56:15;;;;;;;16.15;4.95;;;;;;;22.12;86.16;100099.56;1746532;80;21214;-39
2021/07/30 03:58:45;;;;;;;5.95;4.65;;;;;;;22.24;85.94;100102.60;1734998;82;21037;-39
2021/07/30 04:01:11;;;;;;;11.08;5.17;;;;;;;22.38;85.26;100097.17;1753801;80;20971;-39
2021/07/30 04:03:38;;;;;;;8.00;5.25;;;;;;;22.59;84.75;100101.80;1763461;80;20931;-40
2021/07/30 04:06:06;;;;;;;5.80;4.30;;;;;;;22.75;83.25;100103.30;1739649;82;21034;-39
2021/07/30 04:08:33;;;;;;;6.78;4.58;;;;;;;22.84;82.62;100109.19;1728933;82;21947;-38
2021/07/30 04:11:00;;;;;;;7.60;4.67;;;;;;;22.82;81.57;100111.96;1731291;82;21018;-38
2021/07/30 04:13:27;;;;;;;10.98;6.53;;;;;;;22.80;82.12;100109.06;1744613;82;21608;-38
2021/07/30 04:15:53;;;;;;;8.90;5.08;;;;;;;22.73;82.10;100102.08;1749314;80;21654;-38
2021/07/30 04:18:21;;;;;;;8.38;4.97;;;;;;;22.69;82.27;100100.64;1745046;80;20908;-39
2021/07/30 04:20:47;;;;;;;11.12;4.78;;;;;;;22.65;82.34;100093.45;1746844;81;21051;-38
2021/07/30 04:23:14;;;;;;;11.65;4.47;;;;;;;22.60;82.42;100107.44;1740515;82;21007;-40
2021/07/30 04:25:41;;;;;;;8.28;4.85;;;;;;;22.63;83.04;100107.23;1754728;80;20976;-38
2021/07/30 04:28:07;;;;;;;10.88;4.90;;;;;;;22.63;82.59;100107.70;1698016;82;21003;-38
2021/07/30 04:30:34;;;;;;;10.68;5.03;;;;;;;22.71;82.76;100104.49;1771554;80;20948;-38
2021/07/30 04:33:00;;;;;;;12.23;5.00;;;;;;;22.84;82.49;100105.72;1748237;80;21215;-39
2021/07/30 04:35:27;;;;;;;15.48;6.15;;;;;;;23.03;81.15;100102.52;1700318;82;20996;-39
2021/07/30 04:37:56;;;;;;;10.30;5.42;;;;;;;23.11;79.57;100107.57;1725234;81;20998;-38
2021/07/30 04:40:23;;;;;;;14.83;5.42;;;;;;;23.21;79.90;100106.38;1699670;83;20992;-39
2021/07/30 04:42:50;;;;;;;16.37;5.10;;;;;;;23.38;80.18;100107.73;1702156;83;20987;-38
2021/07/30 04:45:17;;;;;;;11.88;4.92;;;;;;;23.57;78.70;100104.13;1718698;81;21140;-38
2021/07/30 04:47:44;;;;;;;11.22;4.97;;;;;;;23.77;78.64;100104.70;1716783;82;20977;-39
2021/07/30 04:50:10;;;;;;;11.48;5.95;;;;;;;24.00;77.81;100107.31;1701546;83;21018;-38
2021/07/30 04:52:38;;;;;;;10.63;5.25;;;;;;;24.00;76.04;100098.05;1724737;82;20986;-38
2021/07/30 04:55:08;;;;;;;10.30;5.70;;;;;;;23.95;75.58;100104.20;1696345;83;21544;-38
2021/07/30 04:57:34;;;;;;;10.50;5.85;;;;;;;23.94;76.22;100107.81;1744382;80;21198;-38
2021/07/30 05:00:01;;;;;;;9.03;4.80;;;;;;;24.07;76.64;100106.37;1718716;82;20988;-40
2021/07/30 05:02:27;;;;;;;14.25;5.37;;;;;;;24.23;76.37;100112.06;1766571;80;20955;-38
2021/07/30 05:04:55;;;;;;;16.95;5.80;;;;;;;24.45;75.15;100108.98;1774374;80;20974;-39
2021/07/30 05:07:22;;;;;;;13.03;5.75;;;;;;;24.68;74.77;100112.38;1778614;80;20974;-39
2021/07/30 05:09:49;;;;;;;7.70;6.12;;;;;;;24.97;74.02;100114.87;1755572;80;21133;-38
2021/07/30 05:12:15;;;;;;;13.28;6.25;;;;;;;25.24;71.31;100122.74;1769589;80;21022;-38
2021/07/30 05:14:43;;;;;;;15.93;5.72;;;;;;;25.46;70.92;100114.27;1754837;80;21525;-39
2021/07/30 05:17:11;;;;;;;6.87;5.35;;;;;;;25.79;70.55;100117.13;1781591;80;21657;-38
2021/07/30 05:19:39;;;;;;;9.08;5.85;;;;;;;26.16;67.87;100121.47;1766991;80;21073;-39
2021/07/30 05:22:05;;;;;;;9.55;5.58;;;;;;;26.34;66.83;100122.97;1772559;80;21128;-39
2021/07/30 05:24:37;;;;;;;6.62;5.45;;;;;;;26.58;66.69;100121.20;1754494;80;20924;-39
2021/07/30 05:27:07;;;;;;;13.48;5.22;;;;;;;26.75;64.40;100124.13;1770530;80;20974;-39
2021/07/30 05:29:33;;;;;;;15.75;5.78;;;;;;;26.81;64.15;100126.21;1772812;80;21034;-39
2021/07/30 05:32:00;;;;;;;11.73;6.22;;;;;;;26.84;63.22;100132.55;1761354;79;21066;-39
2021/07/30 05:34:27;;;;;;;14.35;6.15;;;;;;;26.54;63.22;100131.28;1760715;80;21088;-39
2021/07/30 05:36:53;;;;;;;15.58;6.45;;;;;;;26.29;63.67;100135.31;1773866;80;20978;-38
2021/07/30 05:41:52;;;;;;;7.78;5.85;;;;;;;25.66;66.03;100134.59;1801946;78;22651;-38
2021/07/30 05:44:19;;;;;;;10.50;5.70;;;;;;;25.62;67.09;100137.64;1767116;80;21038;-38
2021/07/30 05:46:45;;;;;;;12.88;6.17;;;;;;;25.68;67.46;100145.08;1760010;80;21141;-39
2021/07/30 05:49:11;;;;;;;12.28;6.12;;;;;;;25.64;67.03;100143.64;1767988;80;21003;-39
2021/07/30 05:51:38;;;;;;;13.48;6.70;;;;;;;25.47;67.62;100148.62;1772601;80;21075;-39
2021/07/30 05:54:05;;;;;;;13.70;6.50;;;;;;;25.56;68.23;100152.75;1757622;80;20948;-39
2021/07/30 05:56:32;;;;;;;18.75;6.50;;;;;;;25.77;67.49;100144.26;1720589;81;20925;-39
2021/07/30 05:58:58;;;;;;;13.28;6.72;;;;;;;25.99;66.58;100142.36;1755008;80;21926;-39
2021/07/30 06:01:25;;;;;;;7.62;5.92;;;;;;;26.16;65.34;100149.31;1770731;80;20967;-39
2021/07/30 06:03:52;;;;;;;10.10;6.62;;;;;;;26.23;66.35;100140.67;1784994;80;21002;-39
2021/07/30 06:06:18;;;;;;;13.75;7.05;;;;;;;26.43;64.36;100145.17;1767242;80;21037;-39
2021/07/30 06:08:44;;;;;;;9.58;7.03;;;;;;;26.36;64.76;100144.38;1759340;80;21011;-39
2021/07/30 06:11:11;;;;;;;9.83;6.80;;;;;;;26.60;64.72;100142.30;1767307;80;21303;-39
2021/07/30 06:13:37;;;;;;;9.03;6.45;;;;;;;26.91;62.89;100139.03;1736956;81;20986;-36
2021/07/30 06:16:09;;;;;;;10.53;6.50;;;;;;;26.92;63.56;100146.48;1766055;80;20959;-38
2021/07/30 06:18:40;;;;;;;16.20;7.65;;;;;;;27.03;62.52;100136.19;1759817;80;21014;-38
2021/07/30 06:21:06;;;;;;;14.20;7.20;;;;;;;26.95;61.82;100140.89;1762873;80;21070;-39
2021/07/30 06:23:33;;;;;;;13.18;6.30;;;;;;;27.07;62.53;100141.56;1780036;80;22219;-39
2021/07/30 06:25:59;;;;;;;9.00;5.90;;;;;;;27.32;61.72;100145.41;1770204;80;21459;-39
2021/07/30 06:28:25;;;;;;;12.15;6.62;;;;;;;27.46;60.30;100141.44;1780965;80;21028;-39
2021/07/30 06:30:52;;;;;;;7.15;6.45;;;;;;;27.36;60.88;100140.62;1762272;80;21634;-38
2021/07/30 06:33:21;;;;;;;17.05;7.35;;;;;;;27.31;60.47;100147.73;1768273;80;21081;-38
2021/07/30 06:35:50;;;;;;;13.98;7.10;;;;;;;27.30;60.99;100147.86;1783494;80;21987;-39
2021/07/30 06:38:16;;;;;;;8.08;6.28;;;;;;;27.53;60.11;100147.87;1781302;80;21506;-38
2021/07/30 06:40:47;;;;;;;11.40;7.30;;;;;;;27.82;59.68;100150.05;1768754;80;21773;-38
2021/07/30 06:43:13;;;;;;;9.03;6.35;;;;;;;27.96;60.01;100150.04;1779284;80;21014;-39
2021/07/30 06:45:40;;;;;;;9.48;6.37;;;;;;;27.90;57.42;100148.80;1761069;80;21545;-39
2021/07/30 06:48:07;;;;;;;13.32;6.20;;;;;;;27.85;58.22;100151.08;1771852;80;21847;-39
2021/07/30 06:50:33;;;;;;;8.05;6.62;;;;;;;28.01;58.10;100146.91;1739662;80;21493;-39
2021/07/30 06:53:00;;;;;;;12.50;6.20;;;;;;;28.16;57.81;100148.59;1749707;80;21489;-38
2021/07/30 06:55:26;;;;;;;17.40;7.33;;;;;;;28.37;58.54;100138.48;1681965;83;21035;-39
2021/07/30 06:57:53;;;;;;;12.75;6.85;;;;;;;28.25;57.11;100146.38;1780633;80;20968;-39
2021/07/30 07:00:20;;;;;;;13.22;7.05;;;;;;;28.10;58.59;100150.84;1780662;80;21155;-39
2021/07/30 07:02:47;;;;;;;7.97;6.72;;;;;;;27.94;58.21;100152.02;1723772;80;21014;-39
2021/07/30 07:05:13;;;;;;;8.55;6.25;;;;;;;27.75;58.55;100147.62;1748339;80;20959;-39
2021/07/30 07:07:40;;;;;;;13.50;6.70;;;;;;;27.66;58.42;100144.02;1757044;80;20987;-38
2021/07/30 07:10:08;;;;;;;11.20;6.78;;;;;;;27.51;57.67;100155.16;1778951;80;20978;-39
2021/07/30 07:12:37;;;;;;;8.23;6.50;;;;;;;27.38;59.61;100146.63;1779183;80;21144;-39
2021/07/30 07:15:06;;;;;;;8.00;6.37;;;;;;;27.47;60.50;100149.76;1735378;80;20971;-38
2021/07/30 07:17:33;;;;;;;11.78;6.97;;;;;;;27.46;58.81;100147.23;1748456;80;20954;-39
2021/07/30 07:19:59;;;;;;;12.55;6.70;;;;;;;27.38;59.52;100140.84;1774947;80;21003;-39
2021/07/30 07:22:26;;;;;;;7.90;6.42;;;;;;;27.47;60.83;100144.92;1755746;80;20915;-39
2021/07/30 07:24:52;;;;;;;8.15;6.28;;;;;;;27.56;60.04;100141.91;1767154;80;21144;-39
2021/07/30 07:27:19;;;;;;;10.90;7.00;;;;;;;27.44;58.64;100134.11;1753991;80;21620;-39
2021/07/30 07:29:45;;;;;;;14.58;6.60;;;;;;;27.33;59.55;100140.92;1773041;80;21043;-38
2021/07/30 07:32:12;;;;;;;9.65;7.00;;;;;;;27.42;59.59;100144.53;1736757;81;21061;-39
2021/07/30 07:34:38;;;;;;;10.55;6.85;;;;;;;27.40;60.03;100148.17;1763386;80;21074;-39
2021/07/30 07:37:05;;;;;;;11.85;6.70;;;;;;;27.36;60.01;100148.59;1762387;80;21160;-39
2021/07/30 07:39:32;;;;;;;10.13;5.90;;;;;;;27.31;60.73;100146.88;1768038;80;21035;-39
2021/07/30 07:41:58;;;;;;;15.35;6.42;;;;;;;27.32;59.68;100140.58;1739631;80;21012;-39
2021/07/30 07:44:25;;;;;;;11.70;7.20;;;;;;;27.18;59.49;100144.54;1743260;80;20987;-39
2021/07/30 07:46:52;;;;;;;7.10;6.40;;;;;;;27.05;60.37;100143.52;1746895;80;21027;-38
2021/07/30 07:49:18;;;;;;;9.55;7.10;;;;;;;27.14;60.50;100138.66;1748098;80;21120;-39
2021/07/30 07:51:44;;;;;;;9.13;6.50;;;;;;;27.34;60.07;100142.12;1767170;80;20956;-39
2021/07/30 07:54:11;;;;;;;9.95;6.50;;;;;;;27.56;59.46;100144.09;1765999;80;20964;-39
2021/07/30 07:56:38;;;;;;;7.60;6.33;;;;;;;27.85;59.34;100136.45;1771621;80;21549;-39
2021/07/30 07:59:05;;;;;;;11.10;7.20;;;;;;;28.10;57.05;100134.88;1773179;80;21529;-39
2021/07/30 08:01:32;;;;;;;11.65;6.05;;;;;;;28.25;56.39;100133.07;1772601;80;21554;-39
2021/07/30 08:04:00;;;;;;;36.13;6.35;;;;;;;28.36;57.52;100130.68;1753593;80;21564;-39
2021/07/30 08:06:26;;;;;;;7.37;5.70;;;;;;;28.53;56.55;100126.33;1747469;80;20989;-40
2021/07/30 08:08:53;;;;;;;11.85;5.90;;;;;;;28.61;54.48;100128.22;1756045;80;20983;-39
2021/07/30 08:11:20;;;;;;;6.25;5.08;;;;;;;28.64;55.56;100122.08;1770541;80;21002;-39
2021/07/30 08:13:48;;;;;;;8.95;5.35;;;;;;;28.98;54.40;100127.69;1767992;80;21577;-40
2021/07/30 08:16:15;;;;;;;7.30;5.78;;;;;;;29.10;53.94;100126.41;1748313;80;21554;-40
2021/07/30 08:18:43;;;;;;;9.30;5.42;;;;;;;29.25;54.58;100128.84;1742936;82;21071;-39
2021/07/30 08:21:11;;;;;;;33.95;6.15;;;;;;;29.43;53.12;100122.64;1758499;80;20968;-39
2021/07/30 08:23:37;;;;;;;6.90;5.40;;;;;;;29.63;54.22;100117.02;1766040;80;20971;-39
2021/07/30 08:26:04;;;;;;;13.10;4.78;;;;;;;29.72;52.67;100119.22;1754891;80;21130;-40
2021/07/30 08:28:31;;;;;;;6.00;4.83;;;;;;;29.92;50.66;100123.77;1753917;80;20964;-41
2021/07/30 08:30:57;;;;;;;8.08;5.28;;;;;;;29.93;49.87;100118.77;1759071;80;20947;-40
2021/07/30 08:33:24;;;;;;;12.95;4.83;;;;;;;29.91;50.14;100112.77;1750248;80;21023;-42
2021/07/30 08:35:52;;;;;;;12.10;5.33;;;;;;;29.90;51.18;100116.42;1745287;80;20977;-40
2021/07/30 08:38:18;;;;;;;11.93;5.65;;;;;;;30.02;51.76;100116.50;1761065;80;21053;-40
2021/07/30 08:40:45;;;;;;;8.85;4.25;;;;;;;29.96;53.31;100117.13;1740467;80;21157;-40
2021/07/30 08:43:15;;;;;;;7.97;4.03;;;;;;;29.92;47.49;100118.43;1749082;80;21007;-40
2021/07/30 08:45:50;;;;;;;9.43;4.83;;;;;;;29.75;47.90;100119.74;1765686;81;21032;-41
2021/07/30 08:48:17;;;;;;;6.00;5.40;;;;;;;29.77;50.57;100116.41;1744130;81;21039;-41
2021/07/30 08:50:46;;;;;;;18.45;6.12;;;;;;;29.67;53.51;100118.36;1737355;80;21320;-41
2021/07/30 08:53:23;;;;;;;69.17;8.50;;;;;;;29.71;54.23;100118.89;1754007;81;20921;-41
2021/07/30 08:55:52;;;;;;;52.35;7.05;;;;;;;29.60;54.29;100120.86;1751956;81;21027;-41
2021/07/30 08:58:19;;;;;;;71.35;8.23;;;;;;;29.29;53.94;100124.52;1735811;82;21004;-41
2021/07/30 09:00:45;;;;;;;31.10;6.47;;;;;;;28.98;54.45;100116.52;1732239;81;21513;-41
2021/07/30 09:03:11;;;;;;;32.88;6.72;;;;;;;28.91;57.81;100120.30;1752791;81;21932;-42
2021/07/30 09:05:40;;;;;;;27.73;6.78;;;;;;;29.02;56.63;100116.54;1748727;80;20972;-41
2021/07/30 09:08:08;;;;;;;20.95;6.33;;;;;;;28.99;56.34;100122.70;1737453;81;20994;-41
2021/07/30 09:10:40;;;;;;;16.12;6.40;;;;;;;28.93;57.54;100124.15;1735771;82;21544;-41
2021/07/30 09:13:25;;;;;;;21.17;6.83;;;;;;;29.08;57.60;100114.60;1735851;82;20942;-39
2021/07/30 09:16:09;;;;;;;18.37;6.30;;;;;;;29.14;57.99;100133.60;1735923;81;21592;-39
2021/07/30 09:18:41;;;;;;;32.83;6.85;;;;;;;29.30;57.51;100131.52;1736372;81;21458;-39
2021/07/30 09:21:33;;;;;;;13.95;5.60;;;;;;;29.25;55.45;100130.17;1757672;80;20961;-40
2021/07/30 09:24:11;;;;;;;18.05;6.00;;;;;;;29.08;57.16;100125.73;1739408;81;21589;-41
2021/07/30 09:26:50;;;;;;;11.25;6.10;;;;;;;29.19;55.84;100132.63;1738989;81;21083;-41
2021/07/30 09:29:23;;;;;;;12.75;6.08;;;;;;;29.15;55.92;100132.61;1755919;81;21112;-40
2021/07/30 09:31:53;;;;;;;21.95;6.00;;;;;;;29.22;56.85;100127.83;1718709;82;20987;-40
2021/07/30 09:34:35;;;;;;;13.83;6.35;;;;;;;29.34;56.02;100131.53;1745980;82;20951;-40
2021/07/30 09:37:07;;;;;;;10.18;6.12;;;;;;;29.31;56.02;100134.04;1750473;80;21324;-41
2021/07/30 09:39:41;;;;;;;14.05;5.80;;;;;;;29.45;55.08;100136.63;1694355;83;21042;-40
2021/07/30 09:42:11;;;;;;;10.68;5.78;;;;;;;29.47;55.90;100134.64;1698795;82;21230;-42
2021/07/30 09:44:55;;;;;;;18.70;5.80;;;;;;;29.77;54.83;100129.75;1693333;83;21045;-41
2021/07/30 09:47:29;;;;;;;12.03;5.00;;;;;;;29.97;54.24;100135.63;1716842;82;20963;-40
2021/07/30 09:50:04;;;;;;;10.32;5.35;;;;;;;30.24;54.85;100133.70;1758606;80;22157;-40
2021/07/30 09:52:33;;;;;;;10.30;5.35;;;;;;;30.53;53.59;100131.55;1749897;80;21001;-40
2021/07/30 09:55:02;;;;;;;24.92;6.00;;;;;;;30.62;52.57;100126.56;1751596;80;21142;-41
2021/07/30 09:57:30;;;;;;;14.90;5.80;;;;;;;30.61;51.93;100130.75;1752270;80;20971;-41
2021/07/30 09:59:59;;;;;;;22.35;5.97;;;;;;;30.42;52.19;100130.53;1747013;80;21015;-41
2021/07/30 10:02:30;;;;;;;16.62;5.78;;;;;;;30.17;52.47;100133.17;1755217;80;21537;-41
2021/07/30 10:04:56;;;;;;;11.88;5.87;;;;;;;30.00;53.28;100130.95;1730022;81;20968;-41
2021/07/30 10:07:29;;;;;;;23.10;6.00;;;;;;;29.79;53.75;100137.08;1759028;80;21055;-41
2021/07/30 10:10:07;;;;;;;38.05;6.45;;;;;;;29.48;54.19;100138.13;1731610;80;20932;-41
2021/07/30 10:12:35;;;;;;;53.00;8.28;;;;;;;29.19;55.72;100134.81;1749977;80;21386;-41
2021/07/30 10:15:05;;;;;;;102.50;8.78;;;;;;;29.25;55.28;100146.16;1763891;80;21051;-41
2021/07/30 10:17:36;;;;;;;28.73;5.78;;;;;;;29.14;55.62;100129.61;1753163;80;21000;-41
2021/07/30 10:20:07;;;;;;;61.33;8.83;;;;;;;29.29;56.91;100131.19;1730522;80;21299;-41
2021/07/30 10:22:45;;;;;;;16.70;6.03;;;;;;;29.45;55.75;100128.64;1754197;80;21051;-41
2021/07/30 10:25:23;;;;;;;16.35;5.65;;;;;;;29.52;54.42;100129.66;1751601;80;20990;-42
2021/07/30 10:27:53;;;;;;;60.03;6.83;;;;;;;29.39;55.40;100125.22;1733689;80;21059;-41
2021/07/30 10:30:19;;;;;;;61.68;7.97;;;;;;;29.39;54.99;100126.55;1750740;80;20930;-40
2021/07/30 10:32:58;;;;;;;82.72;8.78;;;;;;;29.40;55.71;100118.90;1731634;80;21151;-40
2021/07/30 10:35:30;;;;;;;35.25;5.85;;;;;;;29.54;55.33;100122.33;1727632;82;20968;-42
2021/07/30 10:38:20;;;;;;;52.85;7.35;;;;;;;29.84;54.48;100119.27;1750933;80;20979;-41
2021/07/30 10:41:10;;;;;;;63.20;7.55;;;;;;;29.92;53.72;100123.28;1730660;81;20928;-42
2021/07/30 10:43:55;;;;;;;26.48;6.37;;;;;;;29.96;54.13;100121.95;1748201;80;20974;-42
2021/07/30 10:46:21;;;;;;;37.15;5.53;;;;;;;30.01;52.39;100129.50;1747511;80;21102;-42
2021/07/30 10:48:50;;;;;;;23.25;5.17;;;;;;;29.85;52.49;100120.94;1748208;80;20945;-42
2021/07/30 10:51:24;;;;;;;30.97;5.25;;;;;;;29.78;52.06;100126.08;1742852;80;21498;-42
2021/07/30 10:53:56;;;;;;;37.20;6.67;;;;;;;29.72;52.98;100121.41;1750550;80;20931;-42
2021/07/30 10:56:30;;;;;;;66.35;8.73;;;;;;;29.71;52.76;100126.88;1749094;80;21019;-42
2021/07/30 10:59:07;;;;;;;48.50;7.53;;;;;;;29.62;53.03;100119.34;1725296;80;21120;-43
2021/07/30 11:01:44;;;;;;;71.15;7.62;;;;;;;29.58;53.31;100122.01;1747961;80;21016;-43
2021/07/30 11:04:11;;;;;;;69.70;7.62;;;;;;;29.69;53.21;100127.06;1745556;80;20979;-42
2021/07/30 11:06:43;;;;;;;145.65;10.95;;;;;;;29.73;52.78;100120.41;1745353;80;21015;-43
2021/07/30 11:09:16;;;;;;;23.00;5.17;;;;;;;29.63;52.62;100124.53;1721547;80;20988;-41
2021/07/30 11:11:55;;;;;;;55.83;7.08;;;;;;;29.58;54.05;100118.01;1726274;82;21791;-42
2021/07/30 11:14:31;;;;;;;57.75;7.00;;;;;;;29.69;53.09;100112.40;1748038;80;20975;-42
2021/07/30 11:17:05;;;;;;;34.48;5.62;;;;;;;29.85;53.27;100104.94;1773478;80;20975;-43
2021/07/30 11:19:36;;;;;;;61.57;7.07;;;;;;;30.10;51.02;100112.50;1770665;80;21023;-42
2021/07/30 11:22:07;;;;;;;18.10;5.10;;;;;;;30.25;49.86;100103.86;1750922;80;21335;-42
2021/07/30 11:24:42;;;;;;;9.55;3.70;;;;;;;30.13;49.55;100099.34;1755211;80;21049;-42
2021/07/30 11:27:11;;;;;;;30.25;6.28;;;;;;;29.71;50.45;100093.07;1761424;80;20964;-42
2021/07/30 11:29:37;;;;;;;17.15;5.05;;;;;;;29.64;50.05;100081.36;1754221;80;20921;-42